createdAt,value
2022-08-30T00:00:20.650Z,89.97156
2022-08-30T00:05:21.534Z,89.97156
2022-08-30T00:10:22.447Z,89.97156
2022-08-30T00:15:23.370Z,90.31829
2022-08-30T00:20:24.295Z,90.31829
2022-08-30T00:25:25.222Z,90.31829
2022-08-30T00:30:26.223Z,90.31829
2022-08-30T00:35:27.131Z,90.31829
2022-08-30T00:40:28.108Z,90.66667
2022-08-30T00:45:29.437Z,90.31829
2022-08-30T00:50:30.377Z,90.66667
2022-08-30T00:55:31.361Z,90.31829
2022-08-30T01:00:32.291Z,90.31829
2022-08-30T01:05:33.237Z,90.66667
2022-08-30T01:10:34.167Z,90.66667
2022-08-30T01:15:35.207Z,90.66667
2022-08-30T01:20:36.159Z,90.66667
2022-08-30T01:25:37.040Z,90.66667
2022-08-30T01:30:38.069Z,90.66667
2022-08-30T01:35:38.992Z,91.01671
2022-08-30T01:40:39.957Z,91.01671
2022-08-30T01:45:41.223Z,91.01671
2022-08-30T01:50:42.490Z,91.01671
2022-08-30T01:55:43.466Z,91.01671
2022-08-30T02:00:44.405Z,91.01671
2022-08-30T02:05:45.331Z,91.01671
2022-08-30T02:10:46.356Z,91.01671
2022-08-30T02:15:47.394Z,91.36842
2022-08-30T02:20:48.356Z,91.01671
2022-08-30T02:25:49.230Z,91.01671
2022-08-30T02:30:50.211Z,91.36842
2022-08-30T02:35:51.195Z,91.36842
2022-08-30T02:40:52.076Z,91.36842
2022-08-30T02:45:53.052Z,91.36842
2022-08-30T02:50:59.822Z,91.36842
2022-08-30T02:56:00.757Z,91.36842
2022-08-30T03:01:01.691Z,91.36842
2022-08-30T03:06:02.832Z,91.01671
2022-08-30T03:11:03.742Z,91.01671
2022-08-30T03:16:04.727Z,91.01671
2022-08-30T03:21:05.722Z,91.01671
2022-08-30T03:26:06.670Z,91.01671
2022-08-30T03:31:07.651Z,91.01671
2022-08-30T03:36:08.568Z,91.01671
2022-08-30T03:41:09.472Z,91.01671
2022-08-30T03:46:10.380Z,91.01671
2022-08-30T03:51:11.303Z,91.01671
2022-08-30T03:56:12.177Z,91.36842
2022-08-30T04:01:13.196Z,91.01671
2022-08-30T04:06:14.129Z,91.01671
2022-08-30T04:11:15.007Z,91.01671
2022-08-30T04:16:16.495Z,91.36842
2022-08-30T04:21:17.512Z,91.36842
2022-08-30T04:26:18.558Z,91.01671
2022-08-30T04:31:19.515Z,91.01671
2022-08-30T04:36:20.482Z,91.01671
2022-08-30T04:41:21.400Z,91.01671
2022-08-30T04:46:25.530Z,90.66667
2022-08-30T04:51:26.479Z,90.66667
2022-08-30T04:56:27.417Z,90.66667
2022-08-30T05:01:28.511Z,90.66667
2022-08-30T05:06:29.517Z,90.31829
2022-08-30T05:11:30.431Z,89.97156
2022-08-30T05:16:31.381Z,89.97156
2022-08-30T05:21:32.401Z,89.28302
2022-08-30T05:26:33.331Z,88.94118
2022-08-30T05:31:34.430Z,88.2623
2022-08-30T05:36:35.601Z,88.2623
2022-08-30T05:41:36.774Z,87.92523
2022-08-30T05:46:37.867Z,87.25581
2022-08-30T05:51:43.366Z,87.25581
2022-08-30T05:56:44.635Z,87.25581
2022-08-30T06:01:45.649Z,86.59259
2022-08-30T06:06:46.694Z,86.59259
2022-08-30T06:11:47.634Z,86.59259
2022-08-30T06:16:48.539Z,86.59259
2022-08-30T06:21:49.459Z,86.26328
2022-08-30T06:26:50.364Z,85.6092
2022-08-30T06:31:51.336Z,85.93548
2022-08-30T06:36:52.226Z,86.26328
2022-08-30T06:41:53.142Z,86.92343
2022-08-30T06:46:54.138Z,86.26328
2022-08-30T06:51:55.285Z,85.93548
2022-08-30T06:56:58.446Z,85.6092
2022-08-30T07:01:59.924Z,85.2844
2022-08-30T07:07:00.943Z,84.9611
2022-08-30T07:12:02.078Z,84.9611
2022-08-30T07:17:03.051Z,84.63927
2022-08-30T07:22:04.022Z,84.9611
2022-08-30T07:27:04.975Z,84.63927
2022-08-30T07:32:05.879Z,84.63927
2022-08-30T07:37:06.899Z,84.63927
2022-08-30T07:42:08.105Z,84.63927
2022-08-30T07:47:09.032Z,84.63927
2022-08-30T07:52:09.953Z,84.63927
2022-08-30T07:57:10.925Z,84.31891
2022-08-30T08:02:11.943Z,84.0
2022-08-30T08:07:12.906Z,83.68254
2022-08-30T08:12:13.950Z,84.31891
2022-08-30T08:17:14.846Z,84.31891
2022-08-30T08:22:21.341Z,83.68254
2022-08-30T08:27:22.760Z,83.68254
2022-08-30T08:32:23.670Z,83.05192
2022-08-30T08:37:27.805Z,83.36652
2022-08-30T08:42:28.953Z,83.68254
2022-08-30T08:47:29.870Z,84.0
2022-08-30T08:52:30.825Z,84.0
2022-08-30T08:57:31.763Z,84.0
2022-08-30T09:02:34.405Z,83.68254
2022-08-30T09:07:35.447Z,83.36652
2022-08-30T09:12:36.343Z,83.05192
2022-08-30T09:17:37.679Z,84.0
2022-08-30T09:22:38.643Z,83.68254
2022-08-30T09:27:39.559Z,83.36652
2022-08-30T09:32:40.495Z,83.05192
2022-08-30T09:37:41.811Z,83.36652
2022-08-30T09:42:42.744Z,84.63927
2022-08-30T09:47:43.752Z,84.0
2022-08-30T09:52:44.687Z,83.68254
2022-08-30T09:57:49.320Z,83.68254
2022-08-30T10:02:50.356Z,84.31891
2022-08-30T10:07:51.276Z,84.31891
2022-08-30T10:12:54.785Z,84.9611
2022-08-30T10:17:55.711Z,84.9611
2022-08-30T10:22:58.668Z,85.2844
2022-08-30T10:27:59.820Z,84.9611
2022-08-30T10:33:00.743Z,84.31891
2022-08-30T10:38:01.886Z,84.63927
2022-08-30T10:43:02.824Z,84.63927
2022-08-30T10:48:03.780Z,84.63927
2022-08-30T10:53:05.071Z,84.63927
2022-08-30T10:58:05.996Z,84.31891
2022-08-30T11:03:06.948Z,84.0
2022-08-30T11:08:07.847Z,85.6092
2022-08-30T11:13:21.589Z,85.6092
2022-08-30T11:18:22.492Z,85.2844
2022-08-30T11:23:24.479Z,86.26328
2022-08-30T11:28:25.675Z,87.58974
2022-08-30T11:33:27.833Z,88.2623
2022-08-30T11:38:29.149Z,86.92343
2022-08-30T11:43:30.160Z,87.25581
2022-08-30T11:48:33.306Z,86.92343
2022-08-30T11:53:34.381Z,87.58974
2022-08-30T11:58:35.365Z,87.58974
2022-08-30T12:03:36.546Z,85.93548
2022-08-30T12:08:37.592Z,84.31891
2022-08-30T12:13:39.408Z,86.59259
2022-08-30T12:18:40.747Z,88.2623
2022-08-30T12:23:44.279Z,87.58974
2022-08-30T12:28:48.192Z,86.59259
2022-08-30T12:33:50.782Z,84.63927
2022-08-30T12:38:52.764Z,86.92343
2022-08-30T12:43:53.792Z,86.92343
2022-08-30T12:48:54.733Z,84.63927
2022-08-30T12:53:55.774Z,84.63927
2022-08-30T12:58:56.724Z,87.25581
2022-08-30T13:03:58.771Z,87.25581
2022-08-30T13:09:00.696Z,83.36652
2022-08-30T13:14:03.315Z,82.73874
2022-08-30T13:19:04.297Z,83.36652
2022-08-30T13:24:05.497Z,83.36652
2022-08-30T13:29:10.379Z,83.05192
2022-08-30T13:34:11.622Z,85.2844
2022-08-30T13:39:12.543Z,84.31891
2022-08-30T13:44:14.132Z,85.2844
2022-08-30T13:49:43.707Z,84.31891
2022-08-30T13:54:45.194Z,84.31891
2022-08-30T13:59:50.937Z,84.0
2022-08-30T14:04:52.160Z,84.31891
2022-08-30T14:09:53.295Z,85.2844
2022-08-30T14:14:57.535Z,85.6092
2022-08-30T14:20:00.312Z,86.92343
2022-08-30T14:25:01.412Z,85.6092
2022-08-30T14:30:02.341Z,86.59259
2022-08-30T14:35:03.368Z,84.63927
2022-08-30T14:40:04.814Z,84.31891
2022-08-30T14:45:07.137Z,84.31891
2022-08-30T14:50:08.218Z,83.68254
2022-08-30T14:55:09.712Z,83.36652
2022-08-30T15:00:10.728Z,82.73874
2022-08-30T15:05:12.053Z,83.05192
2022-08-30T15:10:14.920Z,83.68254
2022-08-30T15:15:15.850Z,84.0
2022-08-30T15:20:16.726Z,84.31891
2022-08-30T15:25:17.646Z,84.0
2022-08-30T15:30:19.723Z,84.31891
2022-08-30T15:35:21.280Z,84.9611
2022-08-30T15:40:23.818Z,84.63927
2022-08-30T15:45:27.414Z,84.9611
2022-08-30T15:50:28.328Z,85.6092
2022-08-30T15:55:29.271Z,85.6092
2022-08-30T16:00:30.209Z,85.2844
2022-08-30T16:05:31.253Z,85.6092
2022-08-30T16:10:32.200Z,85.6092
2022-08-30T16:15:33.112Z,86.26328
2022-08-30T16:20:34.014Z,85.93548
2022-08-30T16:25:40.643Z,86.59259
2022-08-30T16:30:42.249Z,86.59259
2022-08-30T16:35:46.457Z,86.59259
2022-08-30T16:40:47.363Z,86.92343
2022-08-30T16:45:48.577Z,86.92343
2022-08-30T16:50:49.542Z,87.58974
2022-08-30T16:55:50.613Z,87.25581
2022-08-30T17:00:51.643Z,87.25581
2022-08-30T17:05:52.763Z,87.25581
2022-08-30T17:10:58.323Z,87.25581
2022-08-30T17:15:59.709Z,87.92523
2022-08-30T17:21:00.660Z,88.2623
2022-08-30T17:26:01.801Z,88.60094
2022-08-30T17:31:03.759Z,89.28302
2022-08-30T17:36:04.706Z,89.62648
2022-08-30T17:41:05.859Z,89.62648
2022-08-30T17:46:07.060Z,89.97156
2022-08-30T17:51:08.070Z,89.62648
2022-08-30T17:56:09.048Z,89.97156
2022-08-30T18:01:11.624Z,90.66667
2022-08-30T18:06:13.162Z,91.01671
2022-08-30T18:11:14.053Z,90.66667
2022-08-30T18:16:16.233Z,91.01671
2022-08-30T18:21:24.411Z,91.01671
2022-08-30T18:26:26.335Z,91.36842
2022-08-30T18:31:27.661Z,91.36842
2022-08-30T18:36:29.289Z,91.72182
2022-08-30T18:41:30.205Z,91.72182
2022-08-30T18:46:31.373Z,92.43373
2022-08-30T18:51:32.325Z,92.43373
2022-08-30T18:56:33.627Z,92.79227
2022-08-30T19:01:34.602Z,92.79227
2022-08-30T19:06:37.707Z,92.79227
2022-08-30T19:11:38.893Z,92.79227
2022-08-30T19:16:39.833Z,92.79227
2022-08-30T19:21:42.427Z,93.15254
2022-08-30T19:26:43.483Z,93.51456
2022-08-30T19:31:47.680Z,93.15254
2022-08-30T19:36:48.630Z,92.79227
2022-08-30T19:41:49.552Z,92.79227
2022-08-30T19:46:50.506Z,93.15254
2022-08-30T19:51:51.460Z,93.15254
2022-08-30T19:56:53.167Z,93.15254
2022-08-30T20:01:54.295Z,93.51456
2022-08-30T20:06:55.535Z,93.15254
2022-08-30T20:11:58.763Z,93.15254
2022-08-30T20:29:34.518Z,93.87835
2022-08-30T20:34:41.043Z,93.87835
2022-08-30T20:39:42.080Z,93.87835
2022-08-30T20:44:43.388Z,94.2439
2022-08-30T20:49:44.334Z,94.2439
2022-08-30T20:54:45.574Z,94.2439
2022-08-30T20:59:46.575Z,94.61125
2022-08-30T21:04:48.190Z,94.98039
2022-08-30T21:09:49.126Z,94.98039
2022-08-30T21:14:50.037Z,94.61125
2022-08-30T21:19:51.096Z,94.98039
2022-08-30T21:24:52.017Z,95.35135
2022-08-30T21:29:52.928Z,95.35135
2022-08-30T21:34:53.876Z,95.35135
2022-08-30T21:39:54.853Z,96.09877
2022-08-30T21:44:55.735Z,96.47525
2022-08-30T21:49:56.692Z,96.8536
2022-08-30T21:54:57.599Z,97.23383
2022-08-30T21:59:59.002Z,96.8536
2022-08-30T22:05:00.272Z,96.8536
2022-08-30T22:10:01.242Z,96.8536
2022-08-30T22:15:02.217Z,96.47525
2022-08-30T22:20:03.227Z,96.8536
2022-08-30T22:25:04.236Z,97.23383
2022-08-30T22:30:05.267Z,98.0
2022-08-30T22:35:06.214Z,98.38596
2022-08-30T22:40:08.059Z,98.38596
2022-08-30T22:45:09.025Z,98.38596
2022-08-30T22:50:11.314Z,98.77387
2022-08-30T22:55:12.234Z,98.38596
2022-08-30T23:00:13.209Z,98.0
2022-08-30T23:05:14.131Z,98.38596
2022-08-30T23:10:15.059Z,98.38596
2022-08-30T23:15:15.987Z,98.77387
2022-08-30T23:20:16.899Z,99.55556
2022-08-30T23:25:17.819Z,99.55556
2022-08-30T23:30:18.768Z,99.16373
2022-08-30T23:35:19.769Z,99.16373
2022-08-30T23:40:20.778Z,99.55556
2022-08-30T23:45:21.784Z,99.55556
2022-08-30T23:50:27.688Z,99.55556
2022-08-30T23:55:28.675Z,99.94937
